Nebo, NC

7:30 AM EDT on August 29, 2014 (GMT -0400)
Rutherford County-Marchman | Change Station
CLOSE
Current Station
Airport
Location: Rutherfordton,
Elevation: 1079 ft
Nearby Weather Stations

Elev 1079 ft 35.43 °N, 81.94 °W | Updated 15 minutes ago

Mostly Cloudy
Mostly Cloudy
69 °F
Feels Like 69 °F
N
0
Wind Variable Wind from North

Today
High -- | Low -- °F
--% Chance of Precip.
Yesterday
High -- | Low -- °F
Precip. -- in
6:57 AM 7:59 PM
Waxing Crescent, 13% visible
Pressure 30.12 in
Visibility 10.0 miles
Clouds Mostly Cloudy 6500 ft
Dew Point 68 °F
Humidity 95%
Rainfall 0.00 in
Snow Depth Not available.
UV 0 out of 12
Pollen 9.00 out of 12
Air Quality Not available.
Flu Activity Not available.
METAR KFQD 291115Z AUTO 00000KT 10SM BKN065 21/20 A3012 RMK AO2 T02050197

More Conditions Fewer Conditions

Pressure 30.12 in
Visibility 10.0 miles
Clouds Mostly Cloudy 6500 ft
Dew Point 68 °F
Humidity 95%
Rainfall 0.00 in
Snow Depth Not available.
UV 0 out of 12
Pollen 9.00 out of 12
Air Quality Not available.
Flu Activity Not available.
METAR KFQD 291115Z AUTO 00000KT 10SM BKN065 21/20 A3012 RMK AO2 T02050197

More Conditions Fewer Conditions

10-Day Weather Forecast

Almanac

Astronomy

Aug. 29, 2014 Rise Set
Actual Time 6:57 AM EDT 7:59 PM EDT
Civil Twilight 6:31 AM EDT 8:25 PM EDT
Nautical Twilight 6:00 AM EDT 8:56 PM EDT
Astronomical Twilight 5:27 AM EDT 9:28 PM EDT
Moon 10:36 AM EDT 10:05 PM EDT
Length of Visible Light 13h 54m
Length of Day
13h 01m
Tomorrow will be 2m 8s shorter.
Waxing Crescent, 13% of the Moon is Illuminated
Today
Waxing Crescent
Sep 2
First Quarter
Sep 8
Full
Sep 15
Last Quarter
Sep 24
New

Today's Extremes

State Highs State Lows

Community

WunderPhotos

Upload Photos

1,748,214 photos uploaded!

Nearby

Snow Depth

Station Depth Elevation
No new snow has been reported.

Earthquake Activity

City Distance Mag. Time & Date
No recent earthquake activity has been reported nearby.
Minimum magnitude displayed is 2.5.

Coastal Water Temperatures

Place Temperature
No Stations Reporting

Nearby Weather Stations